createdAt,value
2023-05-21T00:00:13.748Z,215.12
2023-05-21T00:01:13.745Z,378.49
2023-05-21T00:02:13.805Z,661.36
2023-05-21T00:03:14.189Z,1000.00
2023-05-21T00:04:13.878Z,1000.00
2023-05-21T00:05:14.902Z,1000.00
2023-05-21T00:06:14.076Z,1000.00
2023-05-21T00:07:14.055Z,1000.00
2023-05-21T00:08:14.084Z,1000.00
2023-05-21T00:09:14.148Z,1000.00
2023-05-21T00:10:14.190Z,1000.00
2023-05-21T00:11:14.224Z,1000.00
2023-05-21T00:12:14.263Z,1000.00
2023-05-21T00:13:14.314Z,1000.00
2023-05-21T00:14:14.336Z,1000.00
2023-05-21T00:15:14.403Z,1000.00
2023-05-21T00:16:14.460Z,1000.00
2023-05-21T00:17:14.461Z,1000.00
2023-05-21T00:18:14.512Z,1000.00
2023-05-21T00:19:14.608Z,1000.00
2023-05-21T00:20:14.656Z,1000.00
2023-05-21T00:21:14.650Z,1000.00
2023-05-21T00:22:14.658Z,1000.00
2023-05-21T00:23:14.723Z,1000.00
2023-05-21T00:24:14.790Z,1000.00
2023-05-21T00:25:14.863Z,1000.00
2023-05-21T00:26:14.886Z,1000.00
2023-05-21T00:27:14.937Z,1000.00
2023-05-21T00:28:14.940Z,1000.00
2023-05-21T00:29:15.024Z,1000.00
2023-05-21T00:30:15.082Z,1000.00
2023-05-21T00:31:15.138Z,1000.00
2023-05-21T00:32:15.151Z,1000.00
2023-05-21T00:33:15.184Z,1000.00
2023-05-21T00:34:15.221Z,1000.00
2023-05-21T00:35:15.299Z,1000.00
2023-05-21T00:36:15.297Z,1000.00
2023-05-21T00:37:15.359Z,1000.00
2023-05-21T00:38:15.365Z,1000.00
2023-05-21T00:39:15.405Z,1000.00
2023-05-21T00:40:15.479Z,1000.00
2023-05-21T00:41:15.508Z,1000.00
2023-05-21T00:42:15.624Z,1000.00
2023-05-21T00:43:15.656Z,1000.00
2023-05-21T00:44:15.646Z,1000.00
2023-05-21T00:45:15.714Z,1000.00
2023-05-21T00:46:15.730Z,1000.00
2023-05-21T00:47:15.688Z,1000.00
2023-05-21T00:48:15.802Z,1000.00
2023-05-21T00:49:15.756Z,1000.00
2023-05-21T00:50:15.881Z,1000.00
2023-05-21T00:51:15.878Z,1000.00
2023-05-21T00:52:15.903Z,1000.00
2023-05-21T00:53:15.952Z,1000.00
2023-05-21T00:54:15.976Z,1000.00
2023-05-21T00:55:16.036Z,1000.00
2023-05-21T00:56:16.098Z,1000.00
2023-05-21T00:57:16.113Z,1000.00
2023-05-21T00:58:16.150Z,1000.00
2023-05-21T00:59:16.160Z,1000.00
2023-05-21T01:00:16.235Z,1000.00
2023-05-21T01:01:16.273Z,1000.00
2023-05-21T01:02:16.237Z,1000.00
2023-05-21T01:03:16.468Z,1000.00
2023-05-21T01:04:16.268Z,1000.00
2023-05-21T01:05:16.326Z,1000.00
2023-05-21T01:06:16.287Z,1000.00
2023-05-21T01:07:16.300Z,1000.00
2023-05-21T01:08:16.356Z,1000.00
2023-05-21T01:09:16.348Z,1000.00
2023-05-21T01:10:16.376Z,1000.00
2023-05-21T01:11:16.367Z,1000.00
2023-05-21T01:12:16.375Z,1000.00
2023-05-21T01:13:16.421Z,1000.00
2023-05-21T01:14:16.432Z,1000.00
2023-05-21T01:15:16.514Z,1000.00
2023-05-21T01:16:16.488Z,1000.00
2023-05-21T01:17:16.541Z,1000.00
2023-05-21T01:18:16.560Z,1000.00
2023-05-21T01:19:16.583Z,1000.00
2023-05-21T01:20:16.563Z,1000.00
2023-05-21T01:21:16.602Z,1000.00
2023-05-21T01:22:16.643Z,1000.00
2023-05-21T01:23:16.673Z,1000.00
2023-05-21T01:24:16.718Z,1000.00
2023-05-21T01:25:16.753Z,1000.00
2023-05-21T01:26:16.758Z,1000.00
2023-05-21T01:27:16.754Z,1000.00
2023-05-21T01:28:16.780Z,1000.00
2023-05-21T01:29:16.804Z,1000.00
2023-05-21T01:30:16.825Z,1000.00
2023-05-21T01:31:16.888Z,1000.00
2023-05-21T01:32:16.885Z,1000.00
2023-05-21T01:33:16.963Z,1000.00
2023-05-21T01:34:16.952Z,1000.00
2023-05-21T01:35:16.991Z,1000.00
2023-05-21T01:36:17.029Z,1000.00
2023-05-21T01:37:17.072Z,1000.00
2023-05-21T01:38:17.114Z,1000.00
2023-05-21T01:39:17.146Z,1000.00
2023-05-21T01:40:17.163Z,1000.00
2023-05-21T01:41:17.207Z,1000.00
2023-05-21T01:42:17.224Z,1000.00
2023-05-21T01:43:17.246Z,1000.00
2023-05-21T01:44:17.280Z,1000.00
2023-05-21T01:45:17.313Z,1000.00
2023-05-21T01:46:17.372Z,1000.00
2023-05-21T01:47:17.381Z,1000.00
2023-05-21T01:48:17.414Z,1000.00
2023-05-21T01:49:17.423Z,1000.00
2023-05-21T01:50:17.496Z,1000.00
2023-05-21T01:51:17.484Z,1000.00
2023-05-21T01:52:17.555Z,1000.00
2023-05-21T01:53:17.550Z,1000.00
2023-05-21T01:54:17.570Z,1000.00
2023-05-21T01:55:17.621Z,1000.00
2023-05-21T01:56:17.637Z,1000.00
2023-05-21T01:57:17.682Z,1000.00
2023-05-21T01:58:17.726Z,1000.00
2023-05-21T01:59:17.745Z,1000.00
2023-05-21T02:00:17.785Z,1000.00
2023-05-21T02:01:17.819Z,1000.00
2023-05-21T02:02:17.889Z,1000.00
2023-05-21T02:03:17.998Z,1000.00
2023-05-21T02:04:17.876Z,1000.00
2023-05-21T02:05:17.906Z,1000.00
2023-05-21T02:06:17.941Z,1000.00
2023-05-21T02:07:18.000Z,1000.00
2023-05-21T02:08:18.039Z,1000.00
2023-05-21T02:09:18.083Z,1000.00
2023-05-21T02:10:18.140Z,1000.00
2023-05-21T02:11:18.130Z,1000.00
2023-05-21T02:12:18.155Z,1000.00
2023-05-21T02:13:18.174Z,1000.00
2023-05-21T02:14:18.204Z,1000.00
2023-05-21T02:15:18.308Z,1000.00
2023-05-21T02:16:18.305Z,1000.00
2023-05-21T02:17:18.274Z,1000.00
2023-05-21T02:18:18.272Z,1000.00
2023-05-21T02:19:18.346Z,1000.00
2023-05-21T02:20:18.346Z,1000.00
2023-05-21T02:21:18.346Z,1000.00
2023-05-21T02:22:18.398Z,1000.00
2023-05-21T02:23:18.440Z,1000.00
2023-05-21T02:24:18.460Z,1000.00
2023-05-21T02:25:18.526Z,1000.00
2023-05-21T02:26:18.515Z,1000.00
2023-05-21T02:27:18.544Z,1000.00
2023-05-21T02:28:18.559Z,1000.00
2023-05-21T02:29:18.586Z,1000.00
2023-05-21T02:30:18.671Z,1000.00
2023-05-21T02:31:18.675Z,1000.00
2023-05-21T02:32:18.728Z,1000.00
2023-05-21T02:33:18.763Z,1000.00
2023-05-21T02:34:18.810Z,1000.00
2023-05-21T02:35:18.830Z,1000.00
2023-05-21T02:36:18.808Z,1000.00
2023-05-21T02:37:18.841Z,1000.00
2023-05-21T02:38:18.852Z,1000.00
2023-05-21T02:39:18.919Z,1000.00
2023-05-21T02:40:18.964Z,1000.00
2023-05-21T02:41:18.965Z,1000.00
2023-05-21T02:42:19.024Z,1000.00
2023-05-21T02:43:19.046Z,1000.00
2023-05-21T02:44:19.119Z,1000.00
2023-05-21T02:45:19.177Z,1000.00
2023-05-21T02:46:19.214Z,1000.00
2023-05-21T02:47:19.212Z,1000.00
2023-05-21T02:48:19.231Z,1000.00
2023-05-21T02:49:19.252Z,1000.00
2023-05-21T02:50:19.321Z,1000.00
2023-05-21T02:51:19.343Z,1000.00
2023-05-21T02:52:19.398Z,1000.00
2023-05-21T02:53:19.430Z,1000.00
2023-05-21T02:54:19.467Z,1000.00
2023-05-21T02:55:19.565Z,1000.00
2023-05-21T02:56:19.569Z,1000.00
2023-05-21T02:57:19.658Z,1000.00
2023-05-21T02:58:19.709Z,1000.00
2023-05-21T02:59:19.702Z,1000.00
2023-05-21T03:00:19.774Z,1000.00
2023-05-21T03:01:19.765Z,1000.00
2023-05-21T03:02:19.784Z,1000.00
2023-05-21T03:03:19.929Z,1000.00
2023-05-21T03:04:19.804Z,1000.00
2023-05-21T03:05:19.875Z,1000.00
2023-05-21T03:06:19.925Z,1000.00
2023-05-21T03:07:20.096Z,1000.00
2023-05-21T03:08:19.960Z,1000.00
2023-05-21T03:09:19.979Z,1000.00
2023-05-21T03:10:20.001Z,1000.00
2023-05-21T03:11:20.377Z,1000.00
2023-05-21T03:12:20.131Z,1000.00
2023-05-21T03:13:20.179Z,1000.00
2023-05-21T03:14:20.255Z,1000.00
2023-05-21T03:15:20.349Z,1000.00
2023-05-21T03:16:20.358Z,1000.00
2023-05-21T03:17:20.411Z,1000.00
2023-05-21T03:18:20.436Z,1000.00
2023-05-21T03:19:20.517Z,1000.00
2023-05-21T03:20:20.545Z,1000.00
2023-05-21T03:21:20.516Z,1000.00
2023-05-21T03:22:20.532Z,1000.00
2023-05-21T03:23:20.554Z,1000.00
2023-05-21T03:24:20.559Z,1000.00
2023-05-21T03:25:20.642Z,1000.00
2023-05-21T03:26:20.614Z,1000.00
2023-05-21T03:27:20.665Z,1000.00
2023-05-21T03:28:20.650Z,1000.00
2023-05-21T03:29:20.675Z,1000.00
2023-05-21T03:30:20.757Z,1000.00
2023-05-21T03:31:20.802Z,1000.00
2023-05-21T03:32:20.827Z,1000.00
2023-05-21T03:33:20.777Z,1000.00
2023-05-21T03:34:20.777Z,1000.00
2023-05-21T03:35:20.825Z,1000.00
2023-05-21T03:36:20.820Z,1000.00
2023-05-21T03:37:20.875Z,1000.00
2023-05-21T03:38:20.891Z,1000.00
2023-05-21T03:39:20.902Z,1000.00
2023-05-21T03:40:21.378Z,1000.00
2023-05-21T03:41:20.952Z,1000.00
2023-05-21T03:42:20.971Z,1000.00
2023-05-21T03:43:20.972Z,1000.00
2023-05-21T03:44:20.993Z,1000.00
2023-05-21T03:45:21.043Z,1000.00
2023-05-21T03:46:21.044Z,1000.00
2023-05-21T03:47:21.095Z,1000.00
2023-05-21T03:48:21.061Z,1000.00
2023-05-21T03:49:21.092Z,1000.00
2023-05-21T03:50:21.084Z,1000.00
2023-05-21T03:51:21.099Z,1000.00
2023-05-21T03:52:21.117Z,1000.00
2023-05-21T03:53:21.150Z,1000.00
2023-05-21T03:54:21.176Z,1000.00
2023-05-21T03:55:21.220Z,1000.00
2023-05-21T03:56:21.246Z,1000.00
2023-05-21T03:57:21.246Z,1000.00
2023-05-21T03:58:21.252Z,1000.00
2023-05-21T03:59:21.263Z,1000.00
2023-05-21T04:00:21.274Z,1000.00
2023-05-21T04:01:21.267Z,1000.00
2023-05-21T04:02:21.388Z,1000.00
2023-05-21T04:03:21.475Z,1000.00
2023-05-21T04:04:21.351Z,1000.00
2023-05-21T04:05:21.309Z,1000.00
2023-05-21T04:06:21.309Z,1000.00
2023-05-21T04:07:21.318Z,1000.00
2023-05-21T04:08:21.333Z,1000.00
2023-05-21T04:09:21.348Z,1000.00
2023-05-21T04:10:21.883Z,1000.00
2023-05-21T04:11:21.443Z,1000.00
2023-05-21T04:12:21.428Z,1000.00
2023-05-21T04:13:21.456Z,1000.00
2023-05-21T04:14:21.508Z,1000.00
2023-05-21T04:15:21.568Z,1000.00
2023-05-21T04:16:21.592Z,1000.00
2023-05-21T04:17:21.635Z,1000.00
2023-05-21T04:18:21.603Z,1000.00
2023-05-21T04:19:21.884Z,1000.00
2023-05-21T04:20:21.646Z,1000.00
2023-05-21T04:21:21.675Z,1000.00
2023-05-21T04:22:21.715Z,1000.00
2023-05-21T04:23:21.749Z,1000.00
2023-05-21T04:24:21.780Z,1000.00
2023-05-21T04:25:21.808Z,1000.00
2023-05-21T04:26:21.815Z,1000.00
2023-05-21T04:27:21.841Z,1000.00
2023-05-21T04:28:21.854Z,1000.00
2023-05-21T04:29:21.876Z,1000.00
2023-05-21T04:30:21.921Z,1000.00
2023-05-21T04:31:22.037Z,1000.00
2023-05-21T04:32:21.996Z,1000.00
2023-05-21T04:33:21.995Z,1000.00
2023-05-21T04:34:22.000Z,1000.00
2023-05-21T04:35:22.009Z,1000.00
2023-05-21T04:36:22.030Z,1000.00
2023-05-21T04:37:22.001Z,1000.00
2023-05-21T04:38:22.015Z,1000.00
2023-05-21T04:39:22.053Z,1000.00
2023-05-21T04:40:22.050Z,1000.00
2023-05-21T04:41:22.065Z,1000.00
2023-05-21T04:42:22.085Z,1000.00
2023-05-21T04:43:22.103Z,1000.00
2023-05-21T04:44:22.124Z,1000.00
2023-05-21T04:45:22.133Z,1000.00
2023-05-21T04:46:22.172Z,1000.00
2023-05-21T04:47:22.210Z,1000.00
2023-05-21T04:48:22.162Z,1000.00
2023-05-21T04:49:22.195Z,1000.00
2023-05-21T04:50:22.217Z,1000.00
2023-05-21T04:51:22.230Z,1000.00
2023-05-21T04:52:22.256Z,1000.00
2023-05-21T04:53:22.283Z,1000.00
2023-05-21T04:54:22.306Z,1000.00
2023-05-21T04:55:22.365Z,1000.00
2023-05-21T04:56:22.460Z,1000.00
2023-05-21T04:57:22.495Z,1000.00
2023-05-21T04:58:22.535Z,1000.00
2023-05-21T04:59:22.559Z,1000.00
2023-05-21T05:00:22.577Z,1000.00
2023-05-21T05:01:22.717Z,1000.00
2023-05-21T05:02:22.732Z,1000.00
2023-05-21T05:03:22.736Z,1000.00
2023-05-21T05:04:22.680Z,1000.00
2023-05-21T05:05:22.711Z,1000.00
2023-05-21T05:06:22.731Z,1000.00
2023-05-21T05:07:22.780Z,1000.00
2023-05-21T05:08:22.815Z,1000.00
2023-05-21T05:09:22.832Z,1000.00
2023-05-21T05:10:22.854Z,1000.00
2023-05-21T05:11:22.884Z,1000.00
2023-05-21T05:12:22.940Z,1000.00
2023-05-21T05:13:22.901Z,1000.00
2023-05-21T05:14:22.930Z,1000.00
2023-05-21T05:15:22.962Z,1000.00
2023-05-21T05:16:23.050Z,1000.00
2023-05-21T05:17:23.080Z,1000.00
2023-05-21T05:18:23.098Z,1000.00
2023-05-21T05:19:23.135Z,1000.00
2023-05-21T05:20:23.182Z,1000.00
2023-05-21T05:21:23.201Z,1000.00
2023-05-21T05:22:23.223Z,1000.00
2023-05-21T05:23:23.290Z,1000.00
2023-05-21T05:24:23.315Z,1000.00
2023-05-21T05:25:23.329Z,1000.00
2023-05-21T05:26:23.399Z,1000.00
2023-05-21T05:27:23.422Z,1000.00
2023-05-21T05:28:23.427Z,1000.00
2023-05-21T05:29:23.461Z,1000.00
2023-05-21T05:30:23.467Z,1000.00
2023-05-21T05:31:23.536Z,1000.00
2023-05-21T05:32:23.510Z,1000.00
2023-05-21T05:33:23.464Z,1000.00
2023-05-21T05:34:23.460Z,1000.00
2023-05-21T05:35:23.496Z,1000.00
2023-05-21T05:36:23.456Z,1000.00
2023-05-21T05:37:23.484Z,1000.00
2023-05-21T05:38:23.501Z,1000.00
2023-05-21T05:39:23.547Z,1000.00
2023-05-21T05:40:23.541Z,1000.00
2023-05-21T05:41:23.575Z,1000.00
2023-05-21T05:42:23.571Z,1000.00
2023-05-21T05:43:23.582Z,1000.00
2023-05-21T05:44:23.572Z,1000.00
2023-05-21T05:45:23.585Z,1000.00
2023-05-21T05:46:23.754Z,1000.00
2023-05-21T05:47:23.610Z,1000.00
2023-05-21T05:48:23.670Z,1000.00
2023-05-21T05:49:23.614Z,1000.00
2023-05-21T05:50:23.631Z,1000.00
2023-05-21T05:51:23.639Z,1000.00
2023-05-21T05:52:23.627Z,1000.00
2023-05-21T05:53:23.627Z,1000.00
2023-05-21T05:54:23.648Z,1000.00
2023-05-21T05:55:23.662Z,1000.00
2023-05-21T05:56:23.734Z,1000.00
2023-05-21T05:57:23.651Z,1000.00
2023-05-21T05:58:23.699Z,1000.00
2023-05-21T05:59:23.704Z,1000.00
2023-05-21T06:00:23.726Z,1000.00
2023-05-21T06:01:23.737Z,1000.00
2023-05-21T06:02:23.820Z,1000.00
2023-05-21T06:03:23.953Z,1000.00
2023-05-21T06:04:23.788Z,1000.00
2023-05-21T06:05:23.872Z,1000.00
2023-05-21T06:06:23.820Z,1000.00
2023-05-21T06:07:23.869Z,1000.00
2023-05-21T06:08:24.052Z,1000.00
2023-05-21T06:09:23.961Z,1000.00
2023-05-21T06:10:24.023Z,1000.00
2023-05-21T06:11:24.029Z,1000.00
2023-05-21T06:12:24.061Z,1000.00
2023-05-21T06:13:24.102Z,1000.00
2023-05-21T06:14:24.158Z,1000.00
2023-05-21T06:15:24.204Z,1000.00
2023-05-21T06:16:24.244Z,1000.00
2023-05-21T06:17:24.312Z,1000.00
2023-05-21T06:18:24.339Z,1000.00
2023-05-21T06:19:24.474Z,1000.00
2023-05-21T06:20:24.408Z,1000.00
2023-05-21T06:21:24.402Z,1000.00
2023-05-21T06:22:25.660Z,1000.00
2023-05-21T06:23:24.481Z,1000.00
2023-05-21T06:24:24.513Z,1000.00
2023-05-21T06:25:24.525Z,1000.00
2023-05-21T06:26:24.546Z,1000.00
2023-05-21T06:27:24.519Z,1000.00
2023-05-21T06:28:24.525Z,1000.00
2023-05-21T06:29:24.560Z,1000.00
2023-05-21T06:30:24.626Z,1000.00
2023-05-21T06:31:24.614Z,1000.00
2023-05-21T06:32:24.691Z,1000.00
2023-05-21T06:33:24.727Z,1000.00
2023-05-21T06:34:24.675Z,1000.00
2023-05-21T06:35:24.743Z,1000.00
2023-05-21T06:36:24.731Z,1000.00
2023-05-21T06:37:26.577Z,1000.00
2023-05-21T06:38:24.791Z,1000.00
2023-05-21T06:39:24.821Z,1000.00
2023-05-21T06:40:24.852Z,1000.00
2023-05-21T06:41:24.873Z,1000.00
2023-05-21T06:42:24.894Z,1000.00
2023-05-21T06:43:24.935Z,1000.00
2023-05-21T06:44:24.977Z,1000.00
2023-05-21T06:45:24.981Z,618.27
2023-05-21T06:46:25.060Z,678.39
2023-05-21T06:47:25.037Z,755.88
2023-05-21T06:48:25.071Z,1000.00
2023-05-21T06:49:25.095Z,1000.00
2023-05-21T06:50:25.174Z,1000.00
2023-05-21T06:51:25.141Z,1000.00
2023-05-21T06:52:25.153Z,1000.00
2023-05-21T06:53:25.181Z,1000.00
2023-05-21T06:54:26.908Z,781.48
2023-05-21T06:55:25.228Z,757.21
2023-05-21T06:56:25.258Z,717.62
2023-05-21T06:57:25.262Z,700.86
2023-05-21T06:58:25.282Z,774.62
2023-05-21T06:59:25.272Z,1000.00
2023-05-21T07:00:25.328Z,1000.00
2023-05-21T07:01:25.347Z,1000.00
2023-05-21T07:02:25.430Z,1000.00
2023-05-21T07:03:25.533Z,1000.00
2023-05-21T07:04:25.443Z,1000.00
2023-05-21T07:05:25.524Z,1000.00
2023-05-21T07:06:25.499Z,1000.00
2023-05-21T07:07:25.557Z,1000.00
2023-05-21T07:08:25.571Z,1000.00
2023-05-21T07:09:25.582Z,1000.00
2023-05-21T07:10:25.611Z,1000.00
2023-05-21T07:11:25.651Z,1000.00
2023-05-21T07:12:25.718Z,1000.00
2023-05-21T07:13:25.716Z,1000.00
2023-05-21T07:14:25.721Z,1000.00
2023-05-21T07:15:25.769Z,1000.00
2023-05-21T07:16:25.840Z,1000.00
2023-05-21T07:17:25.861Z,1000.00
2023-05-21T07:18:25.883Z,1000.00
2023-05-21T07:19:25.994Z,1000.00
2023-05-21T07:20:25.982Z,1000.00
2023-05-21T07:21:25.972Z,1000.00
2023-05-21T07:22:27.959Z,1000.00
2023-05-21T07:23:26.060Z,1000.00
2023-05-21T07:24:26.042Z,1000.00
2023-05-21T07:25:26.110Z,1000.00
2023-05-21T07:26:26.150Z,1000.00
2023-05-21T07:27:26.407Z,1000.00
2023-05-21T07:28:26.264Z,1000.00
2023-05-21T07:29:26.278Z,1000.00
2023-05-21T07:30:26.334Z,1000.00
2023-05-21T07:31:26.393Z,1000.00
2023-05-21T07:32:26.412Z,1000.00
2023-05-21T07:33:26.392Z,1000.00
2023-05-21T07:34:26.410Z,1000.00
2023-05-21T07:35:26.435Z,956.35
2023-05-21T07:36:26.472Z,548.64
2023-05-21T07:37:26.549Z,999.38
2023-05-21T07:38:26.542Z,657.78
2023-05-21T07:39:26.597Z,716.22
2023-05-21T07:40:26.638Z,487.04
2023-05-21T07:41:26.697Z,445.18
2023-05-21T07:42:26.749Z,443.05
2023-05-21T07:43:26.812Z,488.32
2023-05-21T07:44:26.874Z,458.63
2023-05-21T07:45:26.899Z,685.32
2023-05-21T07:46:27.025Z,740.24
2023-05-21T07:47:27.017Z,529.52
2023-05-21T07:48:27.039Z,251.04
2023-05-21T07:49:27.076Z,159.00
2023-05-21T07:50:27.073Z,134.05
2023-05-21T07:51:27.090Z,99.66
2023-05-21T07:52:27.161Z,69.91
2023-05-21T07:53:27.111Z,57.19
2023-05-21T07:54:27.161Z,82.96
2023-05-21T07:55:27.224Z,87.02
2023-05-21T07:56:27.240Z,49.10
2023-05-21T07:57:27.275Z,36.59
2023-05-21T07:58:27.334Z,20.84
2023-05-21T07:59:27.348Z,19.06
2023-05-21T08:00:27.358Z,22.32
2023-05-21T08:01:27.375Z,22.94
2023-05-21T08:02:27.508Z,13.85
2023-05-21T08:03:27.551Z,9.55
2023-05-21T08:04:27.565Z,21.58
2023-05-21T08:05:27.502Z,21.98
2023-05-21T08:06:27.525Z,29.86
2023-05-21T08:07:27.547Z,16.40
2023-05-21T08:08:27.562Z,25.25
2023-05-21T08:09:27.591Z,12.04
2023-05-21T08:10:27.611Z,8.25
2023-05-21T08:11:27.619Z,9.91
2023-05-21T08:12:27.677Z,16.56
2023-05-21T08:13:27.757Z,11.85
2023-05-21T08:14:27.843Z,18.14
2023-05-21T08:15:27.959Z,35.87
2023-05-21T08:16:28.050Z,20.70
2023-05-21T08:17:28.107Z,20.87
2023-05-21T08:18:28.157Z,20.42
2023-05-21T08:19:28.348Z,10.30
2023-05-21T08:20:28.242Z,12.56
2023-05-21T08:21:28.215Z,25.26
2023-05-21T08:22:28.231Z,24.55
2023-05-21T08:23:28.271Z,9.93
2023-05-21T08:24:28.324Z,8.62
2023-05-21T08:25:28.288Z,7.18
2023-05-21T08:26:28.301Z,9.12
2023-05-21T08:27:28.355Z,6.07
2023-05-21T08:28:28.353Z,3.15
2023-05-21T08:29:28.390Z,5.00
2023-05-21T08:30:28.399Z,3.90
2023-05-21T08:31:28.438Z,1.50
2023-05-21T08:32:28.485Z,1.30
2023-05-21T08:33:28.439Z,1.60
2023-05-21T08:34:28.479Z,1.31
2023-05-21T08:35:28.532Z,1.98
2023-05-21T08:36:28.564Z,1.24
2023-05-21T08:37:28.513Z,1.10
2023-05-21T08:38:30.218Z,1.42
2023-05-21T08:39:28.597Z,1.62
2023-05-21T08:40:28.625Z,1.50
2023-05-21T08:41:28.640Z,1.91
2023-05-21T08:42:36.587Z,2.53
2023-05-21T08:43:29.702Z,2.45
2023-05-21T08:44:28.693Z,0.89
2023-05-21T08:45:28.693Z,1.38
2023-05-21T08:46:28.737Z,1.19
2023-05-21T08:47:28.666Z,1.17
2023-05-21T08:48:28.662Z,0.73
2023-05-21T08:49:28.638Z,0.40
2023-05-21T08:50:28.642Z,0.34
2023-05-21T08:51:28.626Z,0.34
2023-05-21T08:52:28.645Z,0.57
2023-05-21T08:53:29.308Z,0.49
2023-05-21T08:54:28.628Z,0.44
2023-05-21T08:55:28.600Z,0.34
2023-05-21T08:56:28.609Z,0.43
2023-05-21T08:57:28.592Z,1.07
2023-05-21T08:58:28.587Z,0.61
2023-05-21T08:59:28.572Z,0.96
2023-05-21T09:00:28.584Z,0.49
2023-05-21T09:01:28.603Z,0.65
2023-05-21T09:02:28.608Z,0.83
2023-05-21T09:03:28.612Z,0.65
2023-05-21T09:04:28.611Z,1.58
2023-05-21T09:05:28.648Z,1.39
2023-05-21T09:06:28.644Z,0.98
2023-05-21T09:07:28.709Z,0.47
2023-05-21T09:08:28.792Z,0.46
2023-05-21T09:09:28.804Z,0.45
2023-05-21T09:10:28.818Z,0.48
2023-05-21T09:11:28.882Z,0.69
2023-05-21T09:12:28.923Z,0.34
2023-05-21T09:13:28.918Z,0.40
2023-05-21T09:14:28.970Z,0.62
2023-05-21T09:15:29.011Z,0.79
2023-05-21T09:16:29.134Z,0.69
2023-05-21T09:17:29.106Z,0.46
2023-05-21T09:18:29.131Z,0.65
2023-05-21T09:19:29.259Z,0.64
2023-05-21T09:20:29.187Z,0.38
2023-05-21T09:21:29.190Z,0.45
2023-05-21T09:22:29.243Z,1.04
2023-05-21T09:23:29.222Z,0.90
2023-05-21T09:24:29.238Z,0.65
2023-05-21T09:25:29.281Z,0.44
2023-05-21T09:26:29.320Z,0.57
2023-05-21T09:27:29.354Z,0.56
2023-05-21T09:28:29.414Z,0.36
2023-05-21T09:29:29.481Z,0.41
2023-05-21T09:30:30.694Z,0.58
2023-05-21T09:31:29.665Z,0.50
2023-05-21T09:32:29.589Z,0.52
2023-05-21T09:33:29.692Z,0.58
2023-05-21T09:34:29.516Z,1.64
2023-05-21T09:35:29.551Z,4.32
2023-05-21T09:36:29.609Z,3.43
2023-05-21T09:37:29.487Z,1.49
2023-05-21T09:38:29.513Z,0.66
2023-05-21T09:39:29.477Z,0.61
2023-05-21T09:40:29.482Z,1.33
2023-05-21T09:41:29.462Z,4.56
2023-05-21T09:42:29.439Z,2.55
2023-05-21T09:43:29.443Z,1.14
2023-05-21T09:44:29.446Z,0.59
2023-05-21T09:45:29.428Z,0.50
2023-05-21T09:46:29.501Z,0.51
2023-05-21T09:47:29.454Z,0.50
2023-05-21T09:48:29.488Z,0.71
2023-05-21T09:49:29.421Z,1.04
2023-05-21T09:50:29.405Z,0.94
2023-05-21T09:51:29.395Z,0.72
2023-05-21T09:52:29.391Z,1.07
2023-05-21T09:53:29.391Z,1.17
2023-05-21T09:54:29.387Z,0.81
2023-05-21T09:55:29.360Z,0.34
2023-05-21T09:56:29.444Z,0.34
2023-05-21T09:57:29.415Z,0.34
2023-05-21T09:58:29.382Z,0.34
2023-05-21T09:59:29.335Z,0.34
2023-05-21T10:00:29.335Z,0.34
2023-05-21T10:01:29.354Z,0.34
2023-05-21T10:02:29.356Z,0.34
2023-05-21T10:03:29.335Z,0.58
2023-05-21T10:04:29.338Z,1.15
2023-05-21T10:05:29.307Z,0.97
2023-05-21T10:06:29.333Z,1.14
2023-05-21T10:07:29.308Z,0.96
2023-05-21T10:09:03.877Z,0.50
2023-05-21T10:10:01.724Z,0.50
2023-05-21T10:11:01.716Z,0.50
2023-05-21T10:12:01.713Z,0.50
2023-05-21T10:13:01.700Z,0.50
2023-05-21T10:14:01.692Z,0.50
2023-05-21T10:15:01.683Z,0.47
2023-05-21T10:16:01.754Z,0.47
2023-05-21T10:17:01.669Z,0.66
2023-05-21T10:18:01.685Z,0.65
2023-05-21T10:19:01.670Z,0.92
2023-05-21T10:20:01.691Z,0.59
2023-05-21T10:21:01.657Z,0.77
2023-05-21T10:22:01.665Z,0.76
2023-05-21T10:23:01.640Z,0.96
2023-05-21T10:24:01.648Z,1.05
2023-05-21T10:25:01.643Z,1.04
2023-05-21T10:26:01.633Z,0.94
2023-05-21T10:27:01.612Z,1.14
2023-05-21T10:28:01.606Z,1.46
2023-05-21T10:29:01.614Z,1.68
2023-05-21T10:30:01.605Z,1.96
2023-05-21T10:31:01.590Z,0.85
2023-05-21T10:32:01.602Z,0.86
2023-05-21T10:33:01.784Z,1.02
2023-05-21T10:34:01.598Z,1.10
2023-05-21T10:35:02.038Z,0.74
2023-05-21T10:36:01.580Z,0.80
2023-05-21T10:37:01.556Z,1.09
2023-05-21T10:38:01.555Z,1.26
2023-05-21T10:39:01.565Z,1.80
2023-05-21T10:40:01.540Z,1.50
2023-05-21T10:41:01.560Z,1.68
2023-05-21T10:42:01.526Z,0.87
2023-05-21T10:43:01.525Z,0.93
2023-05-21T10:44:01.516Z,1.37
2023-05-21T10:45:01.507Z,1.55
2023-05-21T10:46:01.624Z,1.03
2023-05-21T10:47:01.505Z,1.17
2023-05-21T10:48:01.519Z,2.02
2023-05-21T10:49:01.495Z,1.53
2023-05-21T10:50:01.477Z,1.93
2023-05-21T10:51:01.472Z,1.63
2023-05-21T10:52:01.451Z,1.24
2023-05-21T10:53:01.445Z,1.57
2023-05-21T10:54:01.434Z,0.85
2023-05-21T10:55:01.432Z,0.95
2023-05-21T10:56:01.422Z,0.67
2023-05-21T10:57:01.424Z,0.80
2023-05-21T10:58:01.460Z,2.10
2023-05-21T10:59:01.452Z,1.38
2023-05-21T11:00:01.561Z,1.30
2023-05-21T11:01:01.538Z,0.75
2023-05-21T11:02:01.612Z,0.45
2023-05-21T11:03:01.666Z,0.58
2023-05-21T11:04:01.677Z,0.83
2023-05-21T11:05:01.675Z,0.79
2023-05-21T11:06:01.700Z,1.35
2023-05-21T11:07:01.722Z,1.48
2023-05-21T11:08:01.751Z,1.18
2023-05-21T11:09:01.788Z,0.67
2023-05-21T11:10:01.817Z,0.70
2023-05-21T11:11:01.860Z,0.77
2023-05-21T11:12:01.880Z,1.29
2023-05-21T11:13:01.890Z,0.94
2023-05-21T11:14:01.915Z,0.74
2023-05-21T11:15:01.938Z,0.79
2023-05-21T11:16:01.952Z,1.22
2023-05-21T11:17:02.077Z,1.48
2023-05-21T11:18:02.105Z,1.25
2023-05-21T11:19:02.076Z,1.85
2023-05-21T11:20:02.108Z,1.78
2023-05-21T11:21:02.120Z,1.15
2023-05-21T11:22:02.139Z,1.48
2023-05-21T11:23:02.183Z,1.38
2023-05-21T11:24:02.210Z,1.34
2023-05-21T11:25:02.218Z,1.73
2023-05-21T11:26:02.237Z,1.78
2023-05-21T11:27:02.251Z,0.97
2023-05-21T11:28:02.268Z,1.16
2023-05-21T11:29:02.316Z,1.66
2023-05-21T11:30:02.378Z,1.38
2023-05-21T11:31:02.477Z,1.48
2023-05-21T11:32:02.478Z,1.52
2023-05-21T11:33:02.538Z,1.74
2023-05-21T11:34:02.556Z,1.12
2023-05-21T11:35:02.605Z,0.97
2023-05-21T11:36:02.641Z,1.26
2023-05-21T11:37:02.656Z,1.27
2023-05-21T11:38:02.665Z,1.72
2023-05-21T11:39:02.682Z,1.52
2023-05-21T11:40:02.701Z,1.42
2023-05-21T11:41:02.709Z,1.09
2023-05-21T11:42:04.493Z,0.73
2023-05-21T11:43:02.803Z,0.50
2023-05-21T11:44:02.838Z,0.54
2023-05-21T11:45:02.859Z,0.65
2023-05-21T11:46:02.920Z,0.93
2023-05-21T11:47:02.975Z,1.15
2023-05-21T11:48:03.004Z,0.97
2023-05-21T11:49:02.971Z,1.62
2023-05-21T11:50:02.978Z,1.35
2023-05-21T11:51:02.978Z,1.41
2023-05-21T11:52:02.996Z,1.81
2023-05-21T11:53:03.003Z,3.05
2023-05-21T11:54:03.041Z,4.10
2023-05-21T11:55:03.068Z,2.85
2023-05-21T11:56:03.083Z,2.54
2023-05-21T11:57:03.110Z,1.46
2023-05-21T11:58:03.170Z,2.66
2023-05-21T11:59:03.192Z,2.02
2023-05-21T12:00:03.239Z,1.26
2023-05-21T12:01:03.303Z,1.51
2023-05-21T12:02:03.341Z,2.68
2023-05-21T12:03:03.508Z,3.62
2023-05-21T12:04:03.475Z,4.30
2023-05-21T12:05:03.482Z,3.81
2023-05-21T12:06:03.552Z,4.48
2023-05-21T12:07:03.507Z,4.83
2023-05-21T12:08:03.539Z,3.73
2023-05-21T12:09:03.538Z,3.97
2023-05-21T12:10:03.601Z,3.67
2023-05-21T12:11:03.628Z,2.93
2023-05-21T12:12:03.684Z,2.40
2023-05-21T12:13:03.679Z,2.36
2023-05-21T12:14:03.686Z,2.34
2023-05-21T12:15:03.673Z,3.09
2023-05-21T12:16:05.820Z,2.66
2023-05-21T12:17:03.672Z,3.28
2023-05-21T12:18:03.720Z,2.66
2023-05-21T12:19:03.709Z,2.55
2023-05-21T12:20:03.673Z,2.31
2023-05-21T12:21:03.664Z,4.15
2023-05-21T12:22:03.641Z,4.08
2023-05-21T12:23:03.641Z,2.42
2023-05-21T12:24:03.642Z,2.94
2023-05-21T12:25:03.639Z,7.02
2023-05-21T12:26:03.635Z,8.21
2023-05-21T12:27:03.641Z,5.45
2023-05-21T12:28:03.650Z,8.74
2023-05-21T12:29:03.633Z,6.52
2023-05-21T12:30:03.602Z,4.53
2023-05-21T12:31:03.616Z,4.90
2023-05-21T12:32:03.748Z,5.35